Time,TemperatureF,DewpointF,PressureIn,WindDirection,WindDirectionDegrees,WindSpeedMPH,WindSpeedGustMPH,Humidity,HourlyPrecipIn,Conditions,Clouds,dailyrainin,SoftwareType,DateUTC
2013-01-23 00:00:00,7.3,-12.4,30.11,South,187,2.7,2.7,39,0.00,,CLR,0.00,VWS V13.00,2013-01-23 05:00:00,
2013-01-23 00:03:00,7.3,-12.4,30.08,SW,216,3.1,5.4,39,0.00,,CLR,0.00,VWS V13.00,2013-01-23 05:03:00,
2013-01-23 00:08:00,7.3,-12.4,30.08,WSW,257,0.0,6.3,39,0.00,,CLR,0.00,VWS V13.00,2013-01-23 05:08:00,
2013-01-23 00:14:00,7.2,-12.6,30.08,SSW,210,2.2,6.3,39,0.00,,CLR,0.00,VWS V13.00,2013-01-23 05:14:00,
2013-01-23 00:19:00,7.2,-12.6,30.08,SW,218,5.4,8.7,39,0.00,,CLR,0.00,VWS V13.00,2013-01-23 05:19:00,
2013-01-23 00:24:00,7.2,-12.6,30.08,WSW,252,2.2,8.3,39,0.00,,CLR,0.00,VWS V13.00,2013-01-23 05:24:00,
2013-01-23 00:29:00,7.2,-12.6,30.08,West,274,2.7,8.3,39,0.00,,CLR,0.00,VWS V13.00,2013-01-23 05:29:00,
2013-01-23 00:34:00,7.0,-12.7,30.08,SW,222,3.1,8.3,39,0.00,,CLR,0.00,VWS V13.00,2013-01-23 05:34:00,
2013-01-23 00:39:00,7.2,-12.6,30.08,SW,214,2.7,8.3,39,0.00,,CLR,0.00,VWS V13.00,2013-01-23 05:39:00,
2013-01-23 00:44:00,7.2,-12.6,30.08,WNW,289,10.1,10.5,39,0.00,,CLR,0.00,VWS V13.00,2013-01-23 05:44:00,
2013-01-23 00:49:00,7.0,-12.7,30.08,SW,216,2.7,10.5,39,0.00,,CLR,0.00,VWS V13.00,2013-01-23 05:49:00,
2013-01-23 00:54:00,7.0,-12.7,30.08,SW,229,7.6,10.5,39,0.00,,CLR,0.00,VWS V13.00,2013-01-23 05:54:00,
2013-01-23 00:59:00,6.8,-12.9,30.08,WNW,298,5.4,10.5,39,0.00,,CLR,0.00,VWS V13.00,2013-01-23 05:59:00,
2013-01-23 01:04:00,7.0,-12.7,30.08,SW,225,3.6,8.1,39,0.00,,CLR,0.00,VWS V13.00,2013-01-23 06:04:00,
2013-01-23 01:09:00,7.0,-12.7,30.08,WNW,284,2.7,8.1,39,0.00,,CLR,0.00,VWS V13.00,2013-01-23 06:09:00,
2013-01-23 01:14:00,6.8,-12.9,30.08,WNW,287,0.0,8.1,39,0.00,,CLR,0.00,VWS V13.00,2013-01-23 06:14:00,
2013-01-23 01:19:00,6.8,-12.9,30.08,SSW,209,3.1,8.1,39,0.00,,CLR,0.00,VWS V13.00,2013-01-23 06:19:00,
2013-01-23 01:24:00,6.8,-12.9,30.08,West,266,8.7,8.7,39,0.00,,CLR,0.00,VWS V13.00,2013-01-23 06:24:00,
2013-01-23 01:29:00,6.6,-13.1,30.08,WSW,244,4.0,8.7,39,0.00,,CLR,0.00,VWS V13.00,2013-01-23 06:29:00,
2013-01-23 01:34:00,6.8,-12.9,30.08,West,276,6.3,8.7,39,0.00,,CLR,0.00,VWS V13.00,2013-01-23 06:34:00,
2013-01-23 01:39:00,6.8,-12.9,30.08,WSW,248,2.7,8.7,39,0.00,,CLR,0.00,VWS V13.00,2013-01-23 06:39:00,
2013-01-23 01:44:00,6.8,-12.9,30.08,SW,220,5.4,6.3,39,0.00,,CLR,0.00,VWS V13.00,2013-01-23 06:44:00,
2013-01-23 01:49:00,6.6,-13.1,30.08,SW,217,0.0,6.3,39,0.00,,CLR,0.00,VWS V13.00,2013-01-23 06:49:00,
2013-01-23 01:54:00,6.4,-13.2,30.08,WSW,237,3.6,6.3,39,0.00,,CLR,0.00,VWS V13.00,2013-01-23 06:54:00,
2013-01-23 01:59:00,6.4,-13.2,30.08,West,279,7.2,7.6,39,0.00,,CLR,0.00,VWS V13.00,2013-01-23 06:59:00,
2013-01-23 02:04:00,6.4,-13.2,30.08,WSW,249,4.0,5.4,39,0.00,,CLR,0.00,VWS V13.00,2013-01-23 07:04:00,
2013-01-23 02:09:00,6.4,-13.2,30.08,West,267,0.0,5.4,39,0.00,,CLR,0.00,VWS V13.00,2013-01-23 07:09:00,
2013-01-23 02:14:00,6.4,-13.2,30.08,WSW,256,5.8,8.1,39,0.00,,CLR,0.00,VWS V13.00,2013-01-23 07:14:00,
2013-01-23 02:19:00,6.4,-13.2,30.11,SSW,211,3.6,8.1,39,0.00,,CLR,0.00,VWS V13.00,2013-01-23 07:19:00,
2013-01-23 02:24:00,6.4,-13.2,30.11,West,267,0.0,5.8,39,0.00,,CLR,0.00,VWS V13.00,2013-01-23 07:24:00,
2013-01-23 02:29:00,6.4,-13.2,30.11,SW,216,2.2,8.3,39,0.00,,CLR,0.00,VWS V13.00,2013-01-23 07:29:00,
2013-01-23 02:35:00,6.4,-13.2,30.11,SSE,150,3.1,8.3,39,0.00,,CLR,0.00,VWS V13.00,2013-01-23 07:35:00,
2013-01-23 02:40:00,6.4,-13.2,30.11,SW,221,0.0,8.3,39,0.00,,CLR,0.00,VWS V13.00,2013-01-23 07:40:00,
2013-01-23 02:45:00,6.4,-13.2,30.11,SW,223,2.7,6.7,39,0.00,,CLR,0.00,VWS V13.00,2013-01-23 07:45:00,
2013-01-23 02:50:00,6.4,-13.2,30.11,West,276,0.0,6.7,39,0.00,,CLR,0.00,VWS V13.00,2013-01-23 07:50:00,
2013-01-23 02:55:00,6.4,-13.2,30.11,NNW,337,0.0,6.7,39,0.00,,CLR,0.00,VWS V13.00,2013-01-23 07:55:00,
2013-01-23 03:00:00,6.3,-13.4,30.11,SSW,203,2.2,6.7,39,0.00,,CLR,0.00,VWS V13.00,2013-01-23 08:00:00,
2013-01-23 03:05:00,6.3,-13.4,30.11,West,263,4.0,5.8,39,0.00,,CLR,0.00,VWS V13.00,2013-01-23 08:05:00,
2013-01-23 03:10:00,6.3,-13.4,30.11,SW,233,0.0,6.3,39,0.00,,CLR,0.00,VWS V13.00,2013-01-23 08:10:00,
2013-01-23 03:15:00,6.3,-13.4,30.11,WNW,283,0.0,6.3,39,0.00,,CLR,0.00,VWS V13.00,2013-01-23 08:15:00,
2013-01-23 03:20:00,6.3,-13.4,30.11,NW,304,0.0,8.7,39,0.00,,CLR,0.00,VWS V13.00,2013-01-23 08:20:00,
2013-01-23 03:25:00,6.3,-13.4,30.11,WSW,253,2.7,4.9,39,0.00,,CLR,0.00,VWS V13.00,2013-01-23 08:25:00,
2013-01-23 03:30:00,6.3,-13.4,30.11,SW,214,3.6,6.7,39,0.00,,CLR,0.00,VWS V13.00,2013-01-23 08:30:00,
2013-01-23 03:35:00,6.1,-13.6,30.11,SSW,211,2.2,8.1,39,0.00,,CLR,0.00,VWS V13.00,2013-01-23 08:35:00,
2013-01-23 03:40:00,6.1,-13.6,30.11,SSW,196,2.7,3.1,39,0.00,,CLR,0.00,VWS V13.00,2013-01-23 08:40:00,
2013-01-23 03:45:00,6.1,-13.6,30.11,NW,311,2.2,3.6,39,0.00,,CLR,0.00,VWS V13.00,2013-01-23 08:45:00,
2013-01-23 03:50:00,6.1,-13.6,30.11,West,272,3.6,5.8,39,0.00,,CLR,0.00,VWS V13.00,2013-01-23 08:50:00,
2013-01-23 03:55:00,6.1,-13.6,30.11,North,6,3.1,5.8,39,0.00,,CLR,0.00,VWS V13.00,2013-01-23 08:55:00,
2013-01-23 04:00:00,6.1,-13.6,30.11,WSW,252,2.2,5.8,39,0.00,,CLR,0.00,VWS V13.00,2013-01-23 09:00:00,
2013-01-23 04:05:00,5.9,-13.7,30.11,WSW,245,3.6,7.6,39,0.00,,CLR,0.00,VWS V13.00,2013-01-23 09:05:00,
2013-01-23 04:11:00,5.9,-13.7,30.11,West,276,0.0,7.6,39,0.00,,CLR,0.00,VWS V13.00,2013-01-23 09:11:00,
2013-01-23 04:16:00,5.9,-13.7,30.11,WSW,238,0.0,7.6,39,0.00,,CLR,0.00,VWS V13.00,2013-01-23 09:16:00,
2013-01-23 04:21:00,5.9,-13.7,30.11,West,273,0.0,0.0,39,0.00,,CLR,0.00,VWS V13.00,2013-01-23 09:21:00,
2013-01-23 04:26:00,5.9,-13.7,30.11,WSW,250,4.0,4.9,39,0.00,,CLR,0.00,VWS V13.00,2013-01-23 09:26:00,
2013-01-23 04:31:00,5.9,-13.7,30.11,WNW,283,0.0,4.9,39,0.00,,CLR,0.00,VWS V13.00,2013-01-23 09:31:00,
2013-01-23 04:36:00,5.9,-13.7,30.11,West,262,2.7,4.9,39,0.00,,CLR,0.00,VWS V13.00,2013-01-23 09:36:00,
2013-01-23 04:41:00,5.7,-13.9,30.11,NNW,333,3.6,4.0,39,0.00,,CLR,0.00,VWS V13.00,2013-01-23 09:41:00,
2013-01-23 04:46:00,5.7,-13.9,30.11,WSW,251,0.0,4.0,39,0.00,,CLR,0.00,VWS V13.00,2013-01-23 09:46:00,
2013-01-23 04:51:00,5.7,-13.9,30.11,WSW,249,4.0,6.3,39,0.00,,CLR,0.00,VWS V13.00,2013-01-23 09:51:00,
2013-01-23 04:56:00,5.7,-13.9,30.11,SE,126,2.2,6.3,39,0.00,,CLR,0.00,VWS V13.00,2013-01-23 09:56:00,
2013-01-23 05:01:00,5.5,-14.0,30.11,West,274,0.0,3.6,39,0.00,,CLR,0.00,VWS V13.00,2013-01-23 10:01:00,
2013-01-23 05:06:00,5.5,-14.0,30.11,West,262,6.3,6.7,39,0.00,,CLR,0.00,VWS V13.00,2013-01-23 10:06:00,
2013-01-23 05:12:00,5.7,-13.9,30.11,SSW,212,3.1,7.2,39,0.00,,CLR,0.00,VWS V13.00,2013-01-23 10:12:00,
2013-01-23 05:17:00,5.5,-14.0,30.11,WSW,257,2.7,7.2,39,0.00,,CLR,0.00,VWS V13.00,2013-01-23 10:17:00,
2013-01-23 05:22:00,5.5,-14.0,30.11,SW,233,0.0,0.0,39,0.00,,CLR,0.00,VWS V13.00,2013-01-23 10:22:00,
2013-01-23 05:27:00,5.4,-14.2,30.11,WSW,243,5.4,5.4,39,0.00,,CLR,0.00,VWS V13.00,2013-01-23 10:27:00,
2013-01-23 05:32:00,5.4,-14.2,30.11,West,268,2.7,5.8,39,0.00,,CLR,0.00,VWS V13.00,2013-01-23 10:32:00,
2013-01-23 05:37:00,5.4,-14.2,30.11,West,262,0.0,5.8,39,0.00,,CLR,0.00,VWS V13.00,2013-01-23 10:37:00,
2013-01-23 05:42:00,5.4,-14.2,30.11,West,281,0.0,4.0,39,0.00,,CLR,0.00,VWS V13.00,2013-01-23 10:42:00,
2013-01-23 05:47:00,5.4,-14.2,30.11,WSW,240,2.7,4.0,39,0.00,,CLR,0.00,VWS V13.00,2013-01-23 10:47:00,
2013-01-23 05:52:00,5.4,-14.2,30.11,West,261,3.1,4.0,39,0.00,,CLR,0.00,VWS V13.00,2013-01-23 10:52:00,
2013-01-23 05:57:00,5.4,-14.2,30.11,WSW,252,4.0,6.3,39,0.00,,CLR,0.00,VWS V13.00,2013-01-23 10:57:00,
2013-01-23 06:02:00,5.4,-14.2,30.11,SSW,196,4.9,4.9,39,0.00,,CLR,0.00,VWS V13.00,2013-01-23 11:02:00,
2013-01-23 06:07:00,5.4,-14.2,30.11,West,264,0.0,4.9,39,0.00,,CLR,0.00,VWS V13.00,2013-01-23 11:07:00,
2013-01-23 06:12:00,5.2,-14.4,30.11,SW,229,3.1,4.9,39,0.00,,CLR,0.00,VWS V13.00,2013-01-23 11:12:00,
2013-01-23 06:17:00,5.2,-14.4,30.11,SW,231,3.1,5.8,39,0.00,,CLR,0.00,VWS V13.00,2013-01-23 11:17:00,
2013-01-23 06:22:00,5.2,-14.4,30.11,WNW,289,2.7,3.1,39,0.00,,CLR,0.00,VWS V13.00,2013-01-23 11:22:00,
2013-01-23 06:27:00,5.2,-14.4,30.11,WNW,287,3.1,5.8,39,0.00,,CLR,0.00,VWS V13.00,2013-01-23 11:27:00,
2013-01-23 06:33:00,5.4,-14.2,30.11,SW,225,3.1,6.3,39,0.00,,CLR,0.00,VWS V13.00,2013-01-23 11:33:00,
2013-01-23 06:38:00,5.0,-14.5,30.11,WSW,247,0.0,6.3,39,0.00,,CLR,0.00,VWS V13.00,2013-01-23 11:38:00,
2013-01-23 06:43:00,5.2,-14.4,30.11,SSW,207,2.7,6.3,39,0.00,,CLR,0.00,VWS V13.00,2013-01-23 11:43:00,
2013-01-23 06:48:00,5.0,-14.5,30.11,SW,220,3.1,6.3,39,0.00,,CLR,0.00,VWS V13.00,2013-01-23 11:48:00,
2013-01-23 06:53:00,5.0,-14.5,30.11,North,7,3.1,6.3,39,0.00,,CLR,0.00,VWS V13.00,2013-01-23 11:53:00,
2013-01-23 06:58:00,5.0,-14.5,30.11,SSW,199,2.7,6.3,39,0.00,,CLR,0.00,VWS V13.00,2013-01-23 11:58:00,
2013-01-23 07:03:00,5.0,-14.5,30.11,WNW,290,4.0,4.0,39,0.00,,CLR,0.00,VWS V13.00,2013-01-23 12:03:00,
2013-01-23 07:08:00,5.0,-14.5,30.11,SW,235,4.9,4.9,39,0.00,,CLR,0.00,VWS V13.00,2013-01-23 12:08:00,
2013-01-23 07:13:00,5.0,-14.5,30.11,SSW,213,4.0,5.4,39,0.00,,CLR,0.00,VWS V13.00,2013-01-23 12:13:00,
2013-01-23 07:18:00,5.0,-14.5,30.11,SW,219,0.0,5.4,39,0.00,,CLR,0.00,VWS V13.00,2013-01-23 12:18:00,
2013-01-23 07:23:00,5.2,-14.4,30.11,SSW,193,5.8,5.8,39,0.00,,CLR,0.00,VWS V13.00,2013-01-23 12:23:00,
2013-01-23 07:28:00,5.2,-14.4,30.11,West,260,0.0,8.3,39,0.00,,CLR,0.00,VWS V13.00,2013-01-23 12:28:00,
2013-01-23 07:33:00,5.2,-14.4,30.11,West,276,0.0,8.3,39,0.00,,CLR,0.00,VWS V13.00,2013-01-23 12:33:00,
2013-01-23 07:39:00,5.4,-14.2,30.11,South,183,2.7,8.3,39,0.00,,CLR,0.00,VWS V13.00,2013-01-23 12:39:00,
2013-01-23 07:44:00,5.5,-14.0,30.11,SW,222,4.0,7.2,39,0.00,,CLR,0.00,VWS V13.00,2013-01-23 12:44:00,
2013-01-23 07:49:00,5.5,-14.0,30.11,SSW,205,3.6,7.2,39,0.00,,CLR,0.00,VWS V13.00,2013-01-23 12:49:00,
2013-01-23 07:54:00,6.1,-13.6,30.11,West,267,0.0,7.2,39,0.00,,CLR,0.00,VWS V13.00,2013-01-23 12:54:00,
2013-01-23 07:59:00,6.8,-12.9,30.11,WSW,247,4.0,7.6,39,0.00,,CLR,0.00,VWS V13.00,2013-01-23 12:59:00,
2013-01-23 08:04:00,7.2,-12.6,30.11,SW,228,5.4,11.0,39,0.00,,CLR,0.00,VWS V13.00,2013-01-23 13:04:00,
2013-01-23 08:09:00,7.5,-12.2,30.11,West,280,2.2,11.0,39,0.00,,CLR,0.00,VWS V13.00,2013-01-23 13:09:00,
2013-01-23 08:14:00,8.1,-11.8,30.11,WNW,290,5.8,11.0,39,0.00,,CLR,0.00,VWS V13.00,2013-01-23 13:14:00,
2013-01-23 08:19:00,8.6,-11.3,30.11,NW,326,4.0,11.0,39,0.00,,CLR,0.00,VWS V13.00,2013-01-23 13:19:00,
2013-01-23 08:24:00,8.8,-11.1,30.11,South,186,2.7,9.6,39,0.00,,CLR,0.00,VWS V13.00,2013-01-23 13:24:00,
2013-01-23 08:29:00,9.3,-10.6,30.11,WNW,291,3.1,9.6,39,0.00,,CLR,0.00,VWS V13.00,2013-01-23 13:29:00,
2013-01-23 08:34:00,9.7,-10.3,30.11,SSW,213,5.8,9.6,39,0.00,,CLR,0.00,VWS V13.00,2013-01-23 13:34:00,
2013-01-23 08:39:00,10.0,-10.0,30.11,SSW,205,4.0,10.1,39,0.00,,CLR,0.00,VWS V13.00,2013-01-23 13:39:00,
2013-01-23 08:44:00,10.4,-9.6,30.11,WSW,243,4.0,8.7,39,0.00,,CLR,0.00,VWS V13.00,2013-01-23 13:44:00,
2013-01-23 08:49:00,10.4,-9.6,30.11,SW,215,5.4,10.5,39,0.00,,CLR,0.00,VWS V13.00,2013-01-23 13:49:00,
2013-01-23 08:54:00,10.9,-9.1,30.11,SSW,206,10.5,11.0,39,0.00,,CLR,0.00,VWS V13.00,2013-01-23 13:54:00,
2013-01-23 08:59:00,11.3,-8.8,30.11,WNW,297,5.8,11.0,39,0.00,,CLR,0.00,VWS V13.00,2013-01-23 13:59:00,
2013-01-23 09:04:00,11.7,-8.5,30.11,SW,221,8.1,11.0,39,0.00,,CLR,0.00,VWS V13.00,2013-01-23 14:04:00,
2013-01-23 09:10:00,12.0,-8.2,30.11,North,349,3.1,11.0,39,0.00,,CLR,0.00,VWS V13.00,2013-01-23 14:10:00,
2013-01-23 09:15:00,12.4,-7.8,30.11,WSW,251,3.1,11.0,39,0.00,,CLR,0.00,VWS V13.00,2013-01-23 14:15:00,
2013-01-23 09:20:00,12.7,-7.5,30.14,NW,310,3.6,11.0,39,0.00,,CLR,0.00,VWS V13.00,2013-01-23 14:20:00,
2013-01-23 09:25:00,12.9,-7.4,30.14,WNW,285,2.7,6.3,39,0.00,,CLR,0.00,VWS V13.00,2013-01-23 14:25:00,
2013-01-23 09:30:00,12.9,-7.4,30.14,WSW,242,2.2,6.3,39,0.00,,CLR,0.00,VWS V13.00,2013-01-23 14:30:00,
2013-01-23 09:35:00,13.8,-6.6,30.14,SW,228,10.1,10.1,39,0.00,,CLR,0.00,VWS V13.00,2013-01-23 14:35:00,
2013-01-23 09:40:00,13.5,-6.9,30.14,NNW,342,10.1,11.0,39,0.00,,CLR,0.00,VWS V13.00,2013-01-23 14:40:00,
2013-01-23 09:45:00,13.8,-6.6,30.14,SW,232,4.0,10.1,39,0.00,,CLR,0.00,VWS V13.00,2013-01-23 14:45:00,
2013-01-23 09:50:00,14.4,-2.6,30.14,WSW,252,0.0,10.1,46,0.00,,CLR,0.00,VWS V13.00,2013-01-23 14:50:00,
2013-01-23 09:55:00,14.4,-2.6,30.14,NNE,19,3.6,10.1,46,0.00,,CLR,0.00,VWS V13.00,2013-01-23 14:55:00,
2013-01-23 10:00:00,14.9,-2.1,30.14,WSW,242,8.1,8.1,46,0.00,,CLR,0.00,VWS V13.00,2013-01-23 15:00:00,
2013-01-23 10:05:00,14.9,-2.1,30.14,NW,309,2.7,8.3,46,0.00,,CLR,0.00,VWS V13.00,2013-01-23 15:05:00,
2013-01-23 10:10:00,16.0,-1.6,30.14,SW,231,2.7,8.3,45,0.00,,CLR,0.00,VWS V13.00,2013-01-23 15:10:00,
2013-01-23 10:15:00,15.4,-2.1,30.14,NE,34,3.1,10.5,45,0.00,,CLR,0.00,VWS V13.00,2013-01-23 15:15:00,
2013-01-23 10:20:00,15.6,-1.9,30.14,SW,229,0.0,2.2,45,0.00,,CLR,0.00,VWS V13.00,2013-01-23 15:20:00,
2013-01-23 10:26:00,15.3,-2.3,30.14,NE,44,2.2,10.5,45,0.00,,CLR,0.00,VWS V13.00,2013-01-23 15:26:00,
2013-01-23 10:31:00,14.5,-2.9,30.14,North,357,4.0,10.5,45,0.00,,CLR,0.00,VWS V13.00,2013-01-23 15:31:00,
2013-01-23 10:36:00,15.1,-2.4,30.14,SSE,167,2.2,10.5,45,0.00,,CLR,0.00,VWS V13.00,2013-01-23 15:36:00,
2013-01-23 10:41:00,16.5,-1.1,30.14,North,2,5.4,5.4,45,0.00,,CLR,0.00,VWS V13.00,2013-01-23 15:41:00,
2013-01-23 10:46:00,17.4,-0.8,30.14,SW,216,3.6,10.5,44,0.00,,CLR,0.00,VWS V13.00,2013-01-23 15:46:00,
2013-01-23 10:51:00,18.1,-0.1,30.14,West,272,7.6,10.5,44,0.00,,CLR,0.00,VWS V13.00,2013-01-23 15:51:00,
2013-01-23 10:56:00,18.7,0.4,30.14,South,190,5.4,10.5,44,0.00,,CLR,0.00,VWS V13.00,2013-01-23 15:56:00,
2013-01-23 11:01:00,19.0,0.2,30.14,NW,309,3.6,7.2,43,0.00,,CLR,0.00,VWS V13.00,2013-01-23 16:01:00,
2013-01-23 11:06:00,19.8,0.9,30.14,West,259,6.7,12.8,43,0.00,,CLR,0.00,VWS V13.00,2013-01-23 16:06:00,
2013-01-23 11:11:00,18.7,-0.1,30.14,SW,218,3.6,12.8,43,0.00,,CLR,0.00,VWS V13.00,2013-01-23 16:11:00,
2013-01-23 11:16:00,17.6,-1.1,30.14,WSW,245,6.3,12.8,43,0.00,,CLR,0.00,VWS V13.00,2013-01-23 16:16:00,
2013-01-23 11:21:00,17.4,-1.2,30.11,WSW,248,8.3,11.4,43,0.00,,CLR,0.00,VWS V13.00,2013-01-23 16:21:00,
2013-01-23 11:26:00,17.8,-0.9,30.11,West,266,8.7,11.4,43,0.00,,CLR,0.00,VWS V13.00,2013-01-23 16:26:00,
2013-01-23 11:31:00,17.8,-0.9,30.11,ENE,72,3.1,13.2,43,0.00,,BKN055,0.00,VWS V13.00,2013-01-23 16:31:00,
2013-01-23 11:36:00,17.8,-0.9,30.11,SSW,206,0.0,13.2,43,0.00,,BKN055,0.00,VWS V13.00,2013-01-23 16:36:00,
2013-01-23 11:41:00,18.7,-0.1,30.11,NNW,338,10.5,11.0,43,0.00,,BKN055,0.00,VWS V13.00,2013-01-23 16:41:00,
2013-01-23 11:47:00,17.1,-1.6,30.11,WSW,251,2.7,11.0,43,0.00,,BKN055,0.00,VWS V13.00,2013-01-23 16:47:00,
2013-01-23 11:52:00,19.0,0.2,30.11,SSW,213,5.4,11.0,43,0.00,,BKN055,0.00,VWS V13.00,2013-01-23 16:52:00,
2013-01-23 11:57:00,19.4,0.6,30.11,West,264,3.6,11.0,43,0.00,,BKN055,0.00,VWS V13.00,2013-01-23 16:57:00,
2013-01-23 12:02:00,17.8,-0.9,30.11,SSE,155,5.8,5.8,43,0.00,,BKN055,0.00,VWS V13.00,2013-01-23 17:02:00,
2013-01-23 12:07:00,19.0,0.2,30.11,ENE,69,2.7,5.8,43,0.00,,BKN055,0.00,VWS V13.00,2013-01-23 17:07:00,
2013-01-23 12:12:00,18.3,-0.4,30.11,NNW,328,0.0,5.8,43,0.00,,BKN055,0.00,VWS V13.00,2013-01-23 17:12:00,
2013-01-23 12:17:00,19.8,0.4,30.11,SSW,208,7.6,8.1,42,0.00,,BKN055,0.00,VWS V13.00,2013-01-23 17:17:00,
2013-01-23 12:22:00,19.9,0.6,30.08,West,277,4.0,5.8,42,0.00,,BKN055,0.00,VWS V13.00,2013-01-23 17:22:00,
2013-01-23 12:27:00,18.5,-1.3,30.08,West,264,4.0,16.3,41,0.00,,BKN055,0.00,VWS V13.00,2013-01-23 17:27:00,
2013-01-23 12:32:00,18.7,-1.1,30.08,WSW,252,11.0,16.3,41,0.00,,BKN055,0.00,VWS V13.00,2013-01-23 17:32:00,
2013-01-23 12:37:00,17.8,-2.4,30.08,WSW,254,5.4,16.3,40,0.00,,BKN055,0.00,VWS V13.00,2013-01-23 17:37:00,
2013-01-23 12:42:00,18.3,-2.0,30.08,NW,310,5.4,8.3,40,0.00,,BKN055,0.00,VWS V13.00,2013-01-23 17:42:00,
2013-01-23 12:47:00,19.0,-1.3,30.08,WSW,242,6.3,11.0,40,0.00,,BKN055,0.00,VWS V13.00,2013-01-23 17:47:00,
2013-01-23 12:52:00,19.6,-1.3,30.08,SW,220,6.3,11.0,39,0.00,,BKN055,0.00,VWS V13.00,2013-01-23 17:52:00,
2013-01-23 12:57:00,19.4,-1.5,30.08,WSW,240,5.4,15.9,39,0.00,,BKN055,0.00,VWS V13.00,2013-01-23 17:57:00,
2013-01-23 13:02:00,19.0,-1.8,30.08,West,277,5.4,5.8,39,0.00,,BKN055,0.00,VWS V13.00,2013-01-23 18:02:00,
2013-01-23 13:07:00,18.5,-2.3,30.08,SW,219,0.0,8.1,39,0.00,,BKN055,0.00,VWS V13.00,2013-01-23 18:07:00,
2013-01-23 13:12:00,18.7,-2.2,30.08,North,353,2.7,8.1,39,0.00,,BKN055,0.00,VWS V13.00,2013-01-23 18:12:00,
2013-01-23 13:18:00,19.0,-1.8,30.05,North,357,0.0,10.1,39,0.00,,BKN055,0.00,VWS V13.00,2013-01-23 18:18:00,
2013-01-23 13:23:00,18.5,-2.3,30.05,WSW,253,3.1,7.2,39,0.00,,BKN055,0.00,VWS V13.00,2013-01-23 18:23:00,
2013-01-23 13:28:00,19.2,-1.7,30.05,WSW,252,10.1,10.1,39,0.00,,BKN055,0.00,VWS V13.00,2013-01-23 18:28:00,
2013-01-23 13:33:00,19.2,-1.7,30.05,SSW,213,7.2,10.1,39,0.00,,BKN055,0.00,VWS V13.00,2013-01-23 18:33:00,
2013-01-23 13:38:00,19.6,-1.9,30.05,SW,226,5.8,10.1,38,0.00,,OVC055,0.00,VWS V13.00,2013-01-23 18:38:00,
2013-01-23 13:43:00,19.4,-2.0,30.05,NNE,20,3.6,8.1,38,0.00,,OVC055,0.00,VWS V13.00,2013-01-23 18:43:00,
2013-01-23 13:48:00,19.6,-1.9,30.05,NNE,12,0.0,8.1,38,0.00,,OVC055,0.00,VWS V13.00,2013-01-23 18:48:00,
2013-01-23 13:53:00,19.8,-1.7,30.05,SW,215,0.0,8.1,38,0.00,,OVC055,0.00,VWS V13.00,2013-01-23 18:53:00,
2013-01-23 13:58:00,19.8,-1.7,30.05,WSW,254,4.0,8.3,38,0.00,,OVC055,0.00,VWS V13.00,2013-01-23 18:58:00,
2013-01-23 14:03:00,19.2,-2.2,30.05,NW,305,5.8,5.8,38,0.00,,OVC055,0.00,VWS V13.00,2013-01-23 19:03:00,
2013-01-23 14:08:00,18.7,-3.3,30.05,North,357,3.1,10.1,37,0.00,,OVC055,0.00,VWS V13.00,2013-01-23 19:08:00,
2013-01-23 14:13:00,18.5,-2.9,30.05,West,277,5.8,10.1,38,0.00,,OVC055,0.00,VWS V13.00,2013-01-23 19:13:00,
2013-01-23 14:18:00,18.5,-2.9,30.05,North,0,5.8,10.1,38,0.00,,OVC055,0.00,VWS V13.00,2013-01-23 19:18:00,
2013-01-23 14:23:00,17.8,-4.1,30.05,NE,56,2.2,8.1,37,0.00,,OVC055,0.00,VWS V13.00,2013-01-23 19:23:00,
2013-01-23 14:28:00,17.6,-3.7,30.05,NNW,327,5.8,8.1,38,0.00,,OVC055,0.00,VWS V13.00,2013-01-23 19:28:00,
2013-01-23 14:33:00,16.5,-5.2,30.08,North,353,3.1,8.1,37,0.00,,OVC055,0.00,VWS V13.00,2013-01-23 19:33:00,
2013-01-23 14:38:00,16.3,-5.4,30.08,ESE,112,0.0,8.1,37,0.00,,OVC055,0.00,VWS V13.00,2013-01-23 19:38:00,
2013-01-23 14:43:00,16.5,-5.2,30.08,NNE,12,2.2,7.6,37,0.00,,OVC055,0.00,VWS V13.00,2013-01-23 19:43:00,
2013-01-23 14:48:00,16.7,-5.0,30.08,West,265,3.6,7.6,37,0.00,,OVC055,0.00,VWS V13.00,2013-01-23 19:48:00,
2013-01-23 14:53:00,16.9,-4.3,30.08,NNW,327,2.2,7.6,38,0.00,,OVC055,0.00,VWS V13.00,2013-01-23 19:53:00,
2013-01-23 14:59:00,17.4,-3.8,30.08,North,357,0.0,7.6,38,0.00,,OVC055,0.00,VWS V13.00,2013-01-23 19:59:00,
2013-01-23 15:04:00,18.1,-3.7,30.08,NNE,12,2.7,9.2,37,0.00,,OVC055,0.00,VWS V13.00,2013-01-23 20:04:00,
2013-01-23 15:09:00,18.0,-3.9,30.08,WSW,244,8.7,11.4,37,0.00,,OVC055,0.00,VWS V13.00,2013-01-23 20:09:00,
2013-01-23 15:14:00,18.1,-3.7,30.08,West,261,8.1,11.4,37,0.00,,OVC055,0.00,VWS V13.00,2013-01-23 20:14:00,
2013-01-23 15:19:00,18.7,-3.3,30.08,ENE,65,3.1,11.4,37,0.00,,OVC055,0.00,VWS V13.00,2013-01-23 20:19:00,
2013-01-23 15:24:00,18.7,-3.3,30.08,SW,236,3.1,11.0,37,0.00,,OVC055,0.00,VWS V13.00,2013-01-23 20:24:00,
2013-01-23 15:29:00,18.5,-3.4,30.08,NNE,19,5.8,11.0,37,0.00,,OVC055,0.00,VWS V13.00,2013-01-23 20:29:00,
2013-01-23 15:34:00,17.1,-4.7,30.08,SW,226,0.0,11.0,37,0.00,,OVC055,0.00,VWS V13.00,2013-01-23 20:34:00,
2013-01-23 15:39:00,16.3,-5.4,30.08,SW,215,3.6,11.0,37,0.00,,FEW047,0.00,VWS V13.00,2013-01-23 20:39:00,
2013-01-23 15:44:00,15.8,-5.3,30.08,SW,217,2.2,8.1,38,0.00,,FEW047,0.00,VWS V13.00,2013-01-23 20:44:00,
2013-01-23 15:49:00,15.1,-5.9,30.08,North,9,3.1,8.1,38,0.00,,FEW047,0.00,VWS V13.00,2013-01-23 20:49:00,
2013-01-23 15:54:00,14.7,-6.3,30.08,SSW,194,3.1,8.1,38,0.00,,FEW047,0.00,VWS V13.00,2013-01-23 20:54:00,
2013-01-23 15:59:00,14.4,-6.6,30.08,SE,141,2.2,8.1,38,0.00,,FEW047,0.00,VWS V13.00,2013-01-23 20:59:00,
2013-01-23 16:04:00,14.4,-6.6,30.08,West,266,2.2,4.0,38,0.00,,FEW047,0.00,VWS V13.00,2013-01-23 21:04:00,
2013-01-23 16:09:00,14.7,-5.7,30.08,South,191,2.2,8.3,39,0.00,,FEW047,0.00,VWS V13.00,2013-01-23 21:09:00,
2013-01-23 16:14:00,14.5,-5.9,30.08,NW,314,0.0,8.3,39,0.00,,FEW047,0.00,VWS V13.00,2013-01-23 21:14:00,
2013-01-23 16:19:00,14.7,-5.7,30.08,SE,136,0.0,8.3,39,0.00,,FEW047,0.00,VWS V13.00,2013-01-23 21:19:00,
2013-01-23 16:24:00,14.5,-5.9,30.08,SW,231,0.0,4.0,39,0.00,,FEW047,0.00,VWS V13.00,2013-01-23 21:24:00,
2013-01-23 16:30:00,14.5,-5.9,30.08,West,279,0.0,4.0,39,0.00,,FEW047,0.00,VWS V13.00,2013-01-23 21:30:00,
2013-01-23 16:35:00,14.5,-5.9,30.08,WNW,288,0.0,4.0,39,0.00,,FEW047,0.00,VWS V13.00,2013-01-23 21:35:00,
2013-01-23 16:40:00,14.2,-6.2,30.08,East,89,2.2,7.6,39,0.00,,OVC060,0.00,VWS V13.00,2013-01-23 21:40:00,
2013-01-23 16:45:00,13.5,-6.9,30.08,West,276,4.9,4.9,39,0.00,,OVC060,0.00,VWS V13.00,2013-01-23 21:45:00,
2013-01-23 16:50:00,13.3,-7.0,30.08,West,276,0.0,4.9,39,0.00,,OVC060,0.00,VWS V13.00,2013-01-23 21:50:00,
2013-01-23 16:55:00,12.9,-7.4,30.08,SW,222,0.0,4.9,39,0.00,,OVC060,0.00,VWS V13.00,2013-01-23 21:55:00,
2013-01-23 17:00:00,12.7,-7.5,30.08,West,260,0.0,4.9,39,0.00,,OVC060,0.00,VWS V13.00,2013-01-23 22:00:00,
2013-01-23 17:05:00,12.6,-7.7,30.05,West,260,0.0,0.0,39,0.00,,OVC060,0.00,VWS V13.00,2013-01-23 22:05:00,
2013-01-23 17:10:00,12.2,-8.0,30.05,West,260,0.0,0.0,39,0.00,,OVC060,0.00,VWS V13.00,2013-01-23 22:10:00,
2013-01-23 17:15:00,12.0,-8.2,30.05,West,260,0.0,0.0,39,0.00,,OVC060,0.00,VWS V13.00,2013-01-23 22:15:00,
2013-01-23 17:20:00,12.0,-8.2,30.08,West,260,0.0,0.0,39,0.00,,OVC060,0.00,VWS V13.00,2013-01-23 22:20:00,
2013-01-23 17:25:00,11.8,-8.3,30.08,West,260,0.0,3.1,39,0.00,,OVC060,0.00,VWS V13.00,2013-01-23 22:25:00,
2013-01-23 17:30:00,11.5,-8.7,30.08,West,260,0.0,3.1,39,0.00,,OVC060,0.00,VWS V13.00,2013-01-23 22:30:00,
2013-01-23 17:35:00,11.3,-8.8,30.08,West,260,0.0,3.1,39,0.00,,BKN060,0.00,VWS V13.00,2013-01-23 22:35:00,
2013-01-23 17:40:00,11.1,-9.0,30.08,West,260,0.0,3.1,39,0.00,,BKN060,0.00,VWS V13.00,2013-01-23 22:40:00,
2013-01-23 17:45:00,10.9,-9.1,30.08,West,260,0.0,0.0,39,0.00,,BKN060,0.00,VWS V13.00,2013-01-23 22:45:00,
2013-01-23 17:50:00,10.8,-9.3,30.08,West,260,0.0,0.0,39,0.00,,BKN060,0.00,VWS V13.00,2013-01-23 22:50:00,
2013-01-23 17:55:00,10.8,-9.3,30.08,West,260,0.0,0.0,39,0.00,,BKN060,0.00,VWS V13.00,2013-01-23 22:55:00,
2013-01-23 18:00:00,10.6,-9.5,30.08,West,260,0.0,0.0,39,0.00,,BKN060,0.00,VWS V13.00,2013-01-23 23:00:00,
2013-01-23 18:05:00,10.2,-9.8,30.08,West,260,0.0,0.0,39,0.00,,BKN060,0.00,VWS V13.00,2013-01-23 23:05:00,
2013-01-23 18:10:00,10.2,-9.8,30.08,West,260,0.0,0.0,39,0.00,,BKN060,0.00,VWS V13.00,2013-01-23 23:10:00,
2013-01-23 18:15:00,10.0,-10.0,30.08,West,260,0.0,0.0,39,0.00,,BKN060,0.00,VWS V13.00,2013-01-23 23:15:00,
2013-01-23 18:21:00,10.0,-10.0,30.08,West,260,0.0,0.0,39,0.00,,BKN060,0.00,VWS V13.00,2013-01-23 23:21:00,
2013-01-23 18:26:00,9.7,-10.3,30.08,West,260,0.0,0.0,39,0.00,,BKN060,0.00,VWS V13.00,2013-01-23 23:26:00,
2013-01-23 18:31:00,9.7,-10.3,30.08,West,260,0.0,0.0,39,0.00,,BKN060,0.00,VWS V13.00,2013-01-23 23:31:00,
2013-01-23 18:36:00,9.3,-10.6,30.08,West,260,0.0,0.0,39,0.00,,CLR,0.00,VWS V13.00,2013-01-23 23:36:00,
2013-01-23 18:41:00,9.3,-10.6,30.08,West,260,0.0,0.0,39,0.00,,CLR,0.00,VWS V13.00,2013-01-23 23:41:00,
2013-01-23 18:46:00,9.1,-10.8,30.08,West,260,0.0,0.0,39,0.00,,CLR,0.00,VWS V13.00,2013-01-23 23:46:00,
2013-01-23 18:51:00,9.1,-10.8,30.08,West,260,0.0,0.0,39,0.00,,CLR,0.00,VWS V13.00,2013-01-23 23:51:00,
2013-01-23 18:56:00,9.1,-10.8,30.08,West,260,0.0,0.0,39,0.00,,CLR,0.00,VWS V13.00,2013-01-23 23:56:00,
2013-01-23 19:01:00,8.8,-11.1,30.08,West,260,0.0,0.0,39,0.00,,CLR,0.00,VWS V13.00,2013-01-24 00:01:00,
2013-01-23 19:06:00,8.8,-11.1,30.08,West,260,0.0,0.0,39,0.00,,CLR,0.00,VWS V13.00,2013-01-24 00:06:00,
2013-01-23 19:11:00,8.6,-11.3,30.08,West,260,0.0,0.0,39,0.00,,CLR,0.00,VWS V13.00,2013-01-24 00:11:00,
2013-01-23 19:16:00,8.6,-11.3,30.08,West,260,0.0,0.0,39,0.00,,CLR,0.00,VWS V13.00,2013-01-24 00:16:00,
2013-01-23 19:21:00,8.4,-11.4,30.08,West,260,0.0,0.0,39,0.00,,CLR,0.00,VWS V13.00,2013-01-24 00:21:00,
2013-01-23 19:26:00,8.4,-11.4,30.08,West,260,0.0,0.0,39,0.00,,CLR,0.00,VWS V13.00,2013-01-24 00:26:00,
2013-01-23 19:31:00,8.4,-11.4,30.08,West,260,0.0,0.0,39,0.00,,CLR,0.00,VWS V13.00,2013-01-24 00:31:00,
2013-01-23 19:36:00,8.4,-11.4,30.08,West,260,0.0,0.0,39,0.00,,CLR,0.00,VWS V13.00,2013-01-24 00:36:00,
2013-01-23 19:42:00,8.1,-11.8,30.08,West,260,0.0,0.0,39,0.00,,CLR,0.00,VWS V13.00,2013-01-24 00:42:00,
2013-01-23 19:47:00,8.1,-11.8,30.08,West,260,0.0,0.0,39,0.00,,CLR,0.00,VWS V13.00,2013-01-24 00:47:00,
2013-01-23 19:52:00,7.9,-11.9,30.08,West,260,0.0,0.0,39,0.00,,CLR,0.00,VWS V13.00,2013-01-24 00:52:00,
2013-01-23 19:57:00,7.9,-11.9,30.08,West,260,0.0,0.0,39,0.00,,CLR,0.00,VWS V13.00,2013-01-24 00:57:00,
2013-01-23 20:02:00,7.9,-11.9,30.08,West,260,0.0,0.0,39,0.00,,CLR,0.00,VWS V13.00,2013-01-24 01:02:00,
2013-01-23 20:07:00,8.1,-11.8,30.08,West,260,0.0,0.0,39,0.00,,CLR,0.00,VWS V13.00,2013-01-24 01:07:00,
2013-01-23 20:12:00,7.9,-11.9,30.08,West,260,0.0,0.0,39,0.00,,CLR,0.00,VWS V13.00,2013-01-24 01:12:00,
2013-01-23 20:17:00,7.9,-11.9,30.08,West,260,0.0,0.0,39,0.00,,CLR,0.00,VWS V13.00,2013-01-24 01:17:00,
2013-01-23 20:22:00,7.7,-12.1,30.08,West,260,0.0,0.0,39,0.00,,CLR,0.00,VWS V13.00,2013-01-24 01:22:00,
2013-01-23 20:27:00,7.5,-12.2,30.08,West,260,0.0,0.0,39,0.00,,CLR,0.00,VWS V13.00,2013-01-24 01:27:00,
2013-01-23 20:32:00,7.5,-12.2,30.08,West,260,0.0,0.0,39,0.00,,CLR,0.00,VWS V13.00,2013-01-24 01:32:00,
2013-01-23 20:37:00,7.3,-12.4,30.08,West,260,0.0,0.0,39,0.00,,CLR,0.00,VWS V13.00,2013-01-24 01:37:00,
2013-01-23 20:42:00,7.2,-12.6,30.08,West,260,0.0,0.0,39,0.00,,CLR,0.00,VWS V13.00,2013-01-24 01:42:00,
2013-01-23 20:47:00,6.8,-12.9,30.08,West,260,0.0,0.0,39,0.00,,CLR,0.00,VWS V13.00,2013-01-24 01:47:00,
2013-01-23 20:52:00,6.8,-12.9,30.08,West,260,0.0,0.0,39,0.00,,CLR,0.00,VWS V13.00,2013-01-24 01:52:00,
2013-01-23 20:57:00,6.4,-13.2,30.08,West,260,0.0,0.0,39,0.00,,CLR,0.00,VWS V13.00,2013-01-24 01:57:00,
2013-01-23 21:02:00,6.4,-13.2,30.08,West,260,0.0,0.0,39,0.00,,CLR,0.00,VWS V13.00,2013-01-24 02:02:00,
2013-01-23 21:07:00,6.4,-13.2,30.08,West,260,0.0,0.0,39,0.00,,CLR,0.00,VWS V13.00,2013-01-24 02:07:00,
2013-01-23 21:12:00,6.3,-13.4,30.08,West,260,0.0,0.0,39,0.00,,CLR,0.00,VWS V13.00,2013-01-24 02:12:00,
2013-01-23 21:17:00,6.3,-13.4,30.08,West,260,0.0,0.0,39,0.00,,CLR,0.00,VWS V13.00,2013-01-24 02:17:00,
2013-01-23 21:23:00,6.1,-13.6,30.08,West,260,0.0,0.0,39,0.00,,CLR,0.00,VWS V13.00,2013-01-24 02:23:00,
2013-01-23 21:28:00,6.1,-13.6,30.08,West,260,0.0,0.0,39,0.00,,CLR,0.00,VWS V13.00,2013-01-24 02:28:00,
2013-01-23 21:33:00,5.9,-13.7,30.08,West,260,0.0,0.0,39,0.00,,CLR,0.00,VWS V13.00,2013-01-24 02:33:00,
2013-01-23 21:38:00,5.9,-13.7,30.08,West,260,0.0,0.0,39,0.00,,CLR,0.00,VWS V13.00,2013-01-24 02:38:00,
2013-01-23 21:43:00,5.9,-13.7,30.08,West,260,0.0,0.0,39,0.00,,CLR,0.00,VWS V13.00,2013-01-24 02:43:00,
2013-01-23 21:48:00,5.9,-13.7,30.08,West,260,0.0,0.0,39,0.00,,CLR,0.00,VWS V13.00,2013-01-24 02:48:00,
2013-01-23 21:53:00,5.9,-13.7,30.08,West,260,0.0,0.0,39,0.00,,CLR,0.00,VWS V13.00,2013-01-24 02:53:00,
2013-01-23 21:58:00,6.1,-13.6,30.08,West,260,0.0,0.0,39,0.00,,CLR,0.00,VWS V13.00,2013-01-24 02:58:00,
2013-01-23 22:03:00,6.1,-13.6,30.08,West,260,0.0,0.0,39,0.00,,CLR,0.00,VWS V13.00,2013-01-24 03:03:00,
2013-01-23 22:08:00,5.9,-13.7,30.08,West,260,0.0,0.0,39,0.00,,CLR,0.00,VWS V13.00,2013-01-24 03:08:00,
2013-01-23 22:13:00,5.9,-13.7,30.08,West,260,0.0,0.0,39,0.00,,CLR,0.00,VWS V13.00,2013-01-24 03:13:00,
2013-01-23 22:18:00,5.9,-13.7,30.08,West,260,0.0,2.2,39,0.00,,CLR,0.00,VWS V13.00,2013-01-24 03:18:00,
2013-01-23 22:23:00,5.9,-13.7,30.08,West,260,0.0,0.0,39,0.00,,CLR,0.00,VWS V13.00,2013-01-24 03:23:00,
2013-01-23 22:28:00,5.9,-13.7,30.08,West,260,0.0,0.0,39,0.00,,CLR,0.00,VWS V13.00,2013-01-24 03:28:00,
2013-01-23 22:33:00,5.9,-13.7,30.08,West,260,0.0,0.0,39,0.00,,CLR,0.00,VWS V13.00,2013-01-24 03:33:00,
2013-01-23 22:38:00,5.7,-13.9,30.08,West,260,0.0,2.2,39,0.00,,CLR,0.00,VWS V13.00,2013-01-24 03:38:00,
2013-01-23 22:43:00,5.7,-13.9,30.08,West,260,0.0,0.0,39,0.00,,CLR,0.00,VWS V13.00,2013-01-24 03:43:00,
2013-01-23 22:48:00,5.9,-13.7,30.08,West,260,0.0,0.0,39,0.00,,CLR,0.00,VWS V13.00,2013-01-24 03:48:00,
2013-01-23 22:53:00,5.9,-13.7,30.08,West,260,0.0,0.0,39,0.00,,CLR,0.00,VWS V13.00,2013-01-24 03:53:00,
2013-01-23 22:58:00,5.9,-13.7,30.08,West,260,0.0,0.0,39,0.00,,CLR,0.00,VWS V13.00,2013-01-24 03:58:00,
2013-01-23 23:03:00,5.9,-13.7,30.08,West,260,0.0,0.0,39,0.00,,CLR,0.00,VWS V13.00,2013-01-24 04:03:00,
2013-01-23 23:09:00,5.9,-13.7,30.08,West,260,0.0,0.0,39,0.00,,CLR,0.00,VWS V13.00,2013-01-24 04:09:00,
2013-01-23 23:14:00,6.1,-13.6,30.08,West,260,0.0,2.7,39,0.00,,CLR,0.00,VWS V13.00,2013-01-24 04:14:00,
2013-01-23 23:19:00,6.1,-13.6,30.08,West,260,0.0,2.7,39,0.00,,CLR,0.00,VWS V13.00,2013-01-24 04:19:00,
2013-01-23 23:24:00,6.3,-13.4,30.08,West,260,0.0,0.0,39,0.00,,CLR,0.00,VWS V13.00,2013-01-24 04:24:00,
2013-01-23 23:29:00,6.3,-13.4,30.08,West,260,0.0,3.1,39,0.00,,CLR,0.00,VWS V13.00,2013-01-24 04:29:00,
2013-01-23 23:34:00,6.4,-13.2,30.08,West,260,0.0,3.1,39,0.00,,CLR,0.00,VWS V13.00,2013-01-24 04:34:00,
2013-01-23 23:39:00,6.4,-13.2,30.08,West,260,0.0,3.1,39,0.00,,CLR,0.00,VWS V13.00,2013-01-24 04:39:00,
2013-01-23 23:44:00,6.4,-13.2,30.08,West,260,0.0,0.0,39,0.00,,CLR,0.00,VWS V13.00,2013-01-24 04:44:00,
2013-01-23 23:49:00,6.6,-13.1,30.08,West,260,0.0,0.0,39,0.00,,CLR,0.00,VWS V13.00,2013-01-24 04:49:00,
2013-01-23 23:54:00,6.6,-13.1,30.08,West,260,0.0,0.0,39,0.00,,CLR,0.00,VWS V13.00,2013-01-24 04:54:00,
2013-01-23 23:59:00,6.8,-12.9,30.08,West,260,0.0,2.7,39,0.00,,CLR,0.00,VWS V13.00,2013-01-24 04:59:00,